sensor_id;sensor_type;location;lat;lon;timestamp;temperature;humidity
23803;DHT22;12082;51.786;6.018;2024-02-14T00:00:18;7.70;99.90
23803;DHT22;12082;51.786;6.018;2024-02-14T00:02:44;7.70;99.90
23803;DHT22;12082;51.786;6.018;2024-02-14T00:05:10;7.90;99.90
23803;DHT22;12082;51.786;6.018;2024-02-14T00:07:39;7.60;99.90
23803;DHT22;12082;51.786;6.018;2024-02-14T00:10:08;7.80;99.90
23803;DHT22;12082;51.786;6.018;2024-02-14T00:12:34;7.80;99.90
23803;DHT22;12082;51.786;6.018;2024-02-14T00:15:00;7.80;99.90
23803;DHT22;12082;51.786;6.018;2024-02-14T00:17:26;7.80;99.90
23803;DHT22;12082;51.786;6.018;2024-02-14T00:19:52;7.90;99.90
23803;DHT22;12082;51.786;6.018;2024-02-14T00:22:17;7.70;99.90
23803;DHT22;12082;51.786;6.018;2024-02-14T00:24:43;7.80;99.90
23803;DHT22;12082;51.786;6.018;2024-02-14T00:27:09;7.90;99.90
23803;DHT22;12082;51.786;6.018;2024-02-14T00:29:34;7.80;99.90
23803;DHT22;12082;51.786;6.018;2024-02-14T00:32:00;7.90;99.90
23803;DHT22;12082;51.786;6.018;2024-02-14T00:34:26;8.10;99.90
23803;DHT22;12082;51.786;6.018;2024-02-14T00:36:52;7.90;99.90
23803;DHT22;12082;51.786;6.018;2024-02-14T00:39:18;7.90;99.90
23803;DHT22;12082;51.786;6.018;2024-02-14T00:41:45;8.00;99.90
23803;DHT22;12082;51.786;6.018;2024-02-14T00:44:11;7.90;99.90
23803;DHT22;12082;51.786;6.018;2024-02-14T00:46:37;8.00;99.90
23803;DHT22;12082;51.786;6.018;2024-02-14T00:49:02;8.10;99.90
23803;DHT22;12082;51.786;6.018;2024-02-14T00:51:28;8.00;99.90
23803;DHT22;12082;51.786;6.018;2024-02-14T00:53:53;8.10;99.90
23803;DHT22;12082;51.786;6.018;2024-02-14T00:56:19;8.10;99.90
23803;DHT22;12082;51.786;6.018;2024-02-14T00:58:44;8.30;99.90
23803;DHT22;12082;51.786;6.018;2024-02-14T01:01:10;8.10;99.90
23803;DHT22;12082;51.786;6.018;2024-02-14T01:03:37;8.30;99.90
23803;DHT22;12082;51.786;6.018;2024-02-14T01:06:03;8.30;99.90
23803;DHT22;12082;51.786;6.018;2024-02-14T01:08:29;8.30;99.90
23803;DHT22;12082;51.786;6.018;2024-02-14T01:10:54;8.30;99.90
23803;DHT22;12082;51.786;6.018;2024-02-14T01:13:20;8.30;99.90
23803;DHT22;12082;51.786;6.018;2024-02-14T01:15:45;8.30;99.90
23803;DHT22;12082;51.786;6.018;2024-02-14T01:18:11;8.40;99.90
23803;DHT22;12082;51.786;6.018;2024-02-14T01:20:36;8.40;99.90
23803;DHT22;12082;51.786;6.018;2024-02-14T01:23:03;8.40;99.90
23803;DHT22;12082;51.786;6.018;2024-02-14T01:25:29;8.40;99.90
23803;DHT22;12082;51.786;6.018;2024-02-14T01:27:54;8.40;99.90
23803;DHT22;12082;51.786;6.018;2024-02-14T01:30:20;8.40;99.90
23803;DHT22;12082;51.786;6.018;2024-02-14T01:32:46;8.50;99.90
23803;DHT22;12082;51.786;6.018;2024-02-14T01:35:12;8.80;99.90
23803;DHT22;12082;51.786;6.018;2024-02-14T01:37:38;8.50;99.90
23803;DHT22;12082;51.786;6.018;2024-02-14T01:40:05;8.60;99.90
23803;DHT22;12082;51.786;6.018;2024-02-14T01:42:32;8.60;99.90
23803;DHT22;12082;51.786;6.018;2024-02-14T01:44:58;8.70;99.90
23803;DHT22;12082;51.786;6.018;2024-02-14T01:47:24;8.50;99.90
23803;DHT22;12082;51.786;6.018;2024-02-14T01:49:50;8.60;99.90
23803;DHT22;12082;51.786;6.018;2024-02-14T01:52:15;8.70;99.90
23803;DHT22;12082;51.786;6.018;2024-02-14T01:54:41;8.70;99.90
23803;DHT22;12082;51.786;6.018;2024-02-14T01:57:08;8.70;99.90
23803;DHT22;12082;51.786;6.018;2024-02-14T01:59:34;8.80;99.90
23803;DHT22;12082;51.786;6.018;2024-02-14T02:02:00;8.90;99.90
23803;DHT22;12082;51.786;6.018;2024-02-14T02:04:26;8.90;99.90
23803;DHT22;12082;51.786;6.018;2024-02-14T02:06:52;8.90;99.90
23803;DHT22;12082;51.786;6.018;2024-02-14T02:09:22;8.90;99.90
23803;DHT22;12082;51.786;6.018;2024-02-14T02:11:49;9.10;99.90
23803;DHT22;12082;51.786;6.018;2024-02-14T02:14:15;9.00;99.90
23803;DHT22;12082;51.786;6.018;2024-02-14T02:16:42;9.00;99.90
23803;DHT22;12082;51.786;6.018;2024-02-14T02:19:08;8.90;99.90
23803;DHT22;12082;51.786;6.018;2024-02-14T02:21:35;9.00;99.90
23803;DHT22;12082;51.786;6.018;2024-02-14T02:24:01;9.00;99.90
23803;DHT22;12082;51.786;6.018;2024-02-14T02:26:27;9.30;99.90
23803;DHT22;12082;51.786;6.018;2024-02-14T02:28:53;9.00;99.90
23803;DHT22;12082;51.786;6.018;2024-02-14T02:31:19;9.00;99.90
23803;DHT22;12082;51.786;6.018;2024-02-14T02:33:45;9.10;99.90
23803;DHT22;12082;51.786;6.018;2024-02-14T02:36:11;9.10;99.90
23803;DHT22;12082;51.786;6.018;2024-02-14T02:38:37;9.10;99.90
23803;DHT22;12082;51.786;6.018;2024-02-14T02:41:04;9.10;99.90
23803;DHT22;12082;51.786;6.018;2024-02-14T02:43:32;9.10;99.90
23803;DHT22;12082;51.786;6.018;2024-02-14T02:45:58;9.20;99.90
23803;DHT22;12082;51.786;6.018;2024-02-14T02:48:24;9.20;99.90
23803;DHT22;12082;51.786;6.018;2024-02-14T02:50:49;9.30;99.90
23803;DHT22;12082;51.786;6.018;2024-02-14T02:53:16;9.20;99.90
23803;DHT22;12082;51.786;6.018;2024-02-14T02:55:42;9.20;99.90
23803;DHT22;12082;51.786;6.018;2024-02-14T02:58:07;9.40;99.90
23803;DHT22;12082;51.786;6.018;2024-02-14T03:00:33;9.20;99.90
23803;DHT22;12082;51.786;6.018;2024-02-14T03:02:59;9.20;99.90
23803;DHT22;12082;51.786;6.018;2024-02-14T03:05:25;9.20;99.90
23803;DHT22;12082;51.786;6.018;2024-02-14T03:07:51;9.10;99.90
23803;DHT22;12082;51.786;6.018;2024-02-14T03:10:18;9.30;99.90
23803;DHT22;12082;51.786;6.018;2024-02-14T03:12:49;9.30;99.90
23803;DHT22;12082;51.786;6.018;2024-02-14T03:15:16;9.40;99.90
23803;DHT22;12082;51.786;6.018;2024-02-14T03:17:42;9.30;99.90
23803;DHT22;12082;51.786;6.018;2024-02-14T03:20:11;9.30;99.90
23803;DHT22;12082;51.786;6.018;2024-02-14T03:22:41;9.40;99.90
23803;DHT22;12082;51.786;6.018;2024-02-14T03:25:19;9.30;99.90
23803;DHT22;12082;51.786;6.018;2024-02-14T03:27:49;9.30;99.90
23803;DHT22;12082;51.786;6.018;2024-02-14T03:30:18;9.30;99.90
23803;DHT22;12082;51.786;6.018;2024-02-14T03:32:44;9.30;99.90
23803;DHT22;12082;51.786;6.018;2024-02-14T03:35:10;9.30;99.90
23803;DHT22;12082;51.786;6.018;2024-02-14T03:37:37;9.30;99.90
23803;DHT22;12082;51.786;6.018;2024-02-14T03:40:05;9.30;99.90
23803;DHT22;12082;51.786;6.018;2024-02-14T03:42:32;9.40;99.90
23803;DHT22;12082;51.786;6.018;2024-02-14T03:44:58;9.50;99.90
23803;DHT22;12082;51.786;6.018;2024-02-14T03:47:28;9.60;99.90
23803;DHT22;12082;51.786;6.018;2024-02-14T03:49:56;9.40;99.90
23803;DHT22;12082;51.786;6.018;2024-02-14T03:52:22;9.40;99.90
23803;DHT22;12082;51.786;6.018;2024-02-14T03:54:48;9.50;99.90
23803;DHT22;12082;51.786;6.018;2024-02-14T03:57:14;9.50;99.90
23803;DHT22;12082;51.786;6.018;2024-02-14T03:59:39;9.50;99.90
23803;DHT22;12082;51.786;6.018;2024-02-14T04:02:05;9.50;99.90
23803;DHT22;12082;51.786;6.018;2024-02-14T04:04:38;9.60;99.90
23803;DHT22;12082;51.786;6.018;2024-02-14T04:07:05;9.60;99.90
23803;DHT22;12082;51.786;6.018;2024-02-14T04:09:32;9.50;99.90
23803;DHT22;12082;51.786;6.018;2024-02-14T04:11:58;9.60;99.90
23803;DHT22;12082;51.786;6.018;2024-02-14T04:14:24;9.70;99.90
23803;DHT22;12082;51.786;6.018;2024-02-14T04:16:49;9.90;99.90
23803;DHT22;12082;51.786;6.018;2024-02-14T04:19:15;9.70;99.90
23803;DHT22;12082;51.786;6.018;2024-02-14T04:21:43;9.70;99.90
23803;DHT22;12082;51.786;6.018;2024-02-14T04:24:08;9.70;99.90
23803;DHT22;12082;51.786;6.018;2024-02-14T04:26:34;9.80;99.90
23803;DHT22;12082;51.786;6.018;2024-02-14T04:29:00;9.80;99.90
23803;DHT22;12082;51.786;6.018;2024-02-14T04:31:25;9.80;99.90
23803;DHT22;12082;51.786;6.018;2024-02-14T04:33:52;9.80;99.90
23803;DHT22;12082;51.786;6.018;2024-02-14T04:36:19;10.00;99.90
23803;DHT22;12082;51.786;6.018;2024-02-14T04:38:51;9.90;99.90
23803;DHT22;12082;51.786;6.018;2024-02-14T04:41:21;9.80;99.90
23803;DHT22;12082;51.786;6.018;2024-02-14T04:43:47;9.70;99.90
23803;DHT22;12082;51.786;6.018;2024-02-14T04:46:12;9.80;99.90
23803;DHT22;12082;51.786;6.018;2024-02-14T04:48:38;9.70;99.90
23803;DHT22;12082;51.786;6.018;2024-02-14T04:51:04;9.70;99.90
23803;DHT22;12082;51.786;6.018;2024-02-14T04:53:31;9.70;99.90
23803;DHT22;12082;51.786;6.018;2024-02-14T04:55:57;9.70;99.90
23803;DHT22;12082;51.786;6.018;2024-02-14T04:58:22;9.80;99.90
23803;DHT22;12082;51.786;6.018;2024-02-14T05:00:48;9.80;99.90
23803;DHT22;12082;51.786;6.018;2024-02-14T05:03:14;9.70;99.90
23803;DHT22;12082;51.786;6.018;2024-02-14T05:05:39;9.70;99.90
23803;DHT22;12082;51.786;6.018;2024-02-14T05:08:05;9.70;99.90
23803;DHT22;12082;51.786;6.018;2024-02-14T05:10:31;9.70;99.90
23803;DHT22;12082;51.786;6.018;2024-02-14T05:12:57;9.70;99.90
23803;DHT22;12082;51.786;6.018;2024-02-14T05:15:23;9.70;99.90
23803;DHT22;12082;51.786;6.018;2024-02-14T05:17:49;9.70;99.90
23803;DHT22;12082;51.786;6.018;2024-02-14T05:20:18;9.70;99.90
23803;DHT22;12082;51.786;6.018;2024-02-14T05:22:44;9.60;99.90
23803;DHT22;12082;51.786;6.018;2024-02-14T05:25:10;9.60;99.90
23803;DHT22;12082;51.786;6.018;2024-02-14T05:27:36;9.60;99.90
23803;DHT22;12082;51.786;6.018;2024-02-14T05:30:03;9.70;99.90
23803;DHT22;12082;51.786;6.018;2024-02-14T05:32:32;9.70;99.90
23803;DHT22;12082;51.786;6.018;2024-02-14T05:34:58;9.80;99.90
23803;DHT22;12082;51.786;6.018;2024-02-14T05:37:23;9.60;99.90
23803;DHT22;12082;51.786;6.018;2024-02-14T05:39:49;9.90;99.90
23803;DHT22;12082;51.786;6.018;2024-02-14T05:42:15;9.70;99.90
23803;DHT22;12082;51.786;6.018;2024-02-14T05:44:42;9.60;99.90
23803;DHT22;12082;51.786;6.018;2024-02-14T05:47:08;9.80;99.90
23803;DHT22;12082;51.786;6.018;2024-02-14T05:49:34;9.60;99.90
23803;DHT22;12082;51.786;6.018;2024-02-14T05:52:00;9.60;99.90
23803;DHT22;12082;51.786;6.018;2024-02-14T05:54:25;9.70;99.90
23803;DHT22;12082;51.786;6.018;2024-02-14T05:56:51;9.60;99.90
23803;DHT22;12082;51.786;6.018;2024-02-14T05:59:16;9.70;99.90
23803;DHT22;12082;51.786;6.018;2024-02-14T06:01:42;9.70;99.90
23803;DHT22;12082;51.786;6.018;2024-02-14T06:04:08;9.70;99.90
23803;DHT22;12082;51.786;6.018;2024-02-14T06:06:34;9.70;99.90
23803;DHT22;12082;51.786;6.018;2024-02-14T06:08:59;9.70;99.90
23803;DHT22;12082;51.786;6.018;2024-02-14T06:11:25;9.70;99.90
23803;DHT22;12082;51.786;6.018;2024-02-14T06:13:50;9.90;99.90
23803;DHT22;12082;51.786;6.018;2024-02-14T06:16:16;9.70;99.90
23803;DHT22;12082;51.786;6.018;2024-02-14T06:18:42;9.80;99.90
23803;DHT22;12082;51.786;6.018;2024-02-14T06:21:07;9.80;99.90
23803;DHT22;12082;51.786;6.018;2024-02-14T06:23:34;9.80;99.90
23803;DHT22;12082;51.786;6.018;2024-02-14T06:26:00;9.90;99.90
23803;DHT22;12082;51.786;6.018;2024-02-14T06:28:25;9.80;99.90
23803;DHT22;12082;51.786;6.018;2024-02-14T06:30:51;9.80;99.90
23803;DHT22;12082;51.786;6.018;2024-02-14T06:33:16;9.80;99.90
23803;DHT22;12082;51.786;6.018;2024-02-14T06:35:42;9.80;99.90
23803;DHT22;12082;51.786;6.018;2024-02-14T06:38:08;9.80;99.90
23803;DHT22;12082;51.786;6.018;2024-02-14T06:40:33;9.80;99.90
23803;DHT22;12082;51.786;6.018;2024-02-14T06:42:59;9.70;99.90
23803;DHT22;12082;51.786;6.018;2024-02-14T06:45:26;10.00;99.90
23803;DHT22;12082;51.786;6.018;2024-02-14T06:47:53;9.90;99.90
23803;DHT22;12082;51.786;6.018;2024-02-14T06:50:19;9.80;99.90
23803;DHT22;12082;51.786;6.018;2024-02-14T06:52:45;9.80;99.90
23803;DHT22;12082;51.786;6.018;2024-02-14T06:55:10;9.60;99.90
23803;DHT22;12082;51.786;6.018;2024-02-14T06:57:36;9.80;99.90
23803;DHT22;12082;51.786;6.018;2024-02-14T07:00:05;9.70;99.90
23803;DHT22;12082;51.786;6.018;2024-02-14T07:02:32;9.80;99.90
23803;DHT22;12082;51.786;6.018;2024-02-14T07:04:58;9.70;99.90
23803;DHT22;12082;51.786;6.018;2024-02-14T07:07:23;9.80;99.90
23803;DHT22;12082;51.786;6.018;2024-02-14T07:09:49;10.00;99.90
23803;DHT22;12082;51.786;6.018;2024-02-14T07:12:14;9.80;99.90
23803;DHT22;12082;51.786;6.018;2024-02-14T07:14:40;10.00;99.90
23803;DHT22;12082;51.786;6.018;2024-02-14T07:17:06;9.90;99.90
23803;DHT22;12082;51.786;6.018;2024-02-14T07:19:32;9.90;99.90
23803;DHT22;12082;51.786;6.018;2024-02-14T07:21:58;9.90;99.90
23803;DHT22;12082;51.786;6.018;2024-02-14T07:24:23;9.90;99.90
23803;DHT22;12082;51.786;6.018;2024-02-14T07:26:49;10.00;99.90
23803;DHT22;12082;51.786;6.018;2024-02-14T07:29:14;10.00;99.90
23803;DHT22;12082;51.786;6.018;2024-02-14T07:31:40;9.90;99.90
23803;DHT22;12082;51.786;6.018;2024-02-14T07:34:07;9.90;99.90
23803;DHT22;12082;51.786;6.018;2024-02-14T07:36:32;9.80;99.90
23803;DHT22;12082;51.786;6.018;2024-02-14T07:38:58;10.00;99.90
23803;DHT22;12082;51.786;6.018;2024-02-14T07:41:23;10.00;99.90
23803;DHT22;12082;51.786;6.018;2024-02-14T07:43:49;10.00;99.90
23803;DHT22;12082;51.786;6.018;2024-02-14T07:46:18;10.00;99.90
23803;DHT22;12082;51.786;6.018;2024-02-14T07:48:44;10.00;99.90
23803;DHT22;12082;51.786;6.018;2024-02-14T07:51:11;10.00;99.90
23803;DHT22;12082;51.786;6.018;2024-02-14T07:53:36;10.00;99.90
23803;DHT22;12082;51.786;6.018;2024-02-14T07:56:02;10.10;99.90
23803;DHT22;12082;51.786;6.018;2024-02-14T07:58:28;10.10;99.90
23803;DHT22;12082;51.786;6.018;2024-02-14T08:00:54;10.10;99.90
23803;DHT22;12082;51.786;6.018;2024-02-14T08:03:19;11.20;99.90
23803;DHT22;12082;51.786;6.018;2024-02-14T08:05:45;10.10;99.90
23803;DHT22;12082;51.786;6.018;2024-02-14T08:08:10;10.10;99.90
23803;DHT22;12082;51.786;6.018;2024-02-14T08:10:36;10.20;99.90
23803;DHT22;12082;51.786;6.018;2024-02-14T08:13:02;10.20;99.90
23803;DHT22;12082;51.786;6.018;2024-02-14T08:15:30;10.20;99.90
23803;DHT22;12082;51.786;6.018;2024-02-14T08:17:55;10.40;99.90
23803;DHT22;12082;51.786;6.018;2024-02-14T08:20:22;10.20;99.90
23803;DHT22;12082;51.786;6.018;2024-02-14T08:22:49;10.20;99.90
23803;DHT22;12082;51.786;6.018;2024-02-14T08:25:15;10.20;99.90
23803;DHT22;12082;51.786;6.018;2024-02-14T08:27:41;10.20;99.90
23803;DHT22;12082;51.786;6.018;2024-02-14T08:30:07;10.20;99.90
23803;DHT22;12082;51.786;6.018;2024-02-14T08:32:34;10.20;99.90
23803;DHT22;12082;51.786;6.018;2024-02-14T08:34:59;10.20;99.90
23803;DHT22;12082;51.786;6.018;2024-02-14T08:37:26;10.20;99.90
23803;DHT22;12082;51.786;6.018;2024-02-14T08:39:53;10.40;99.90
23803;DHT22;12082;51.786;6.018;2024-02-14T08:42:18;10.20;99.90
23803;DHT22;12082;51.786;6.018;2024-02-14T08:44:44;10.80;99.90
23803;DHT22;12082;51.786;6.018;2024-02-14T08:47:10;10.20;99.90
23803;DHT22;12082;51.786;6.018;2024-02-14T08:49:36;10.20;99.90
23803;DHT22;12082;51.786;6.018;2024-02-14T08:52:01;10.20;99.90
23803;DHT22;12082;51.786;6.018;2024-02-14T08:54:27;10.20;99.90
23803;DHT22;12082;51.786;6.018;2024-02-14T08:56:54;10.20;99.90
23803;DHT22;12082;51.786;6.018;2024-02-14T08:59:21;10.20;99.90
23803;DHT22;12082;51.786;6.018;2024-02-14T09:01:47;10.30;99.90
23803;DHT22;12082;51.786;6.018;2024-02-14T09:04:13;10.30;99.90
23803;DHT22;12082;51.786;6.018;2024-02-14T09:06:39;10.30;99.90
23803;DHT22;12082;51.786;6.018;2024-02-14T09:09:09;10.30;99.90
23803;DHT22;12082;51.786;6.018;2024-02-14T09:11:36;10.30;99.90
23803;DHT22;12082;51.786;6.018;2024-02-14T09:14:02;10.30;99.90
23803;DHT22;12082;51.786;6.018;2024-02-14T09:16:34;10.40;99.90
23803;DHT22;12082;51.786;6.018;2024-02-14T09:19:00;10.40;99.90
23803;DHT22;12082;51.786;6.018;2024-02-14T09:21:30;10.20;99.90
23803;DHT22;12082;51.786;6.018;2024-02-14T09:23:56;10.30;99.90
23803;DHT22;12082;51.786;6.018;2024-02-14T09:26:21;10.30;99.90
23803;DHT22;12082;51.786;6.018;2024-02-14T09:28:47;10.30;99.90
23803;DHT22;12082;51.786;6.018;2024-02-14T09:31:20;10.30;99.90
23803;DHT22;12082;51.786;6.018;2024-02-14T09:33:48;10.60;99.90
23803;DHT22;12082;51.786;6.018;2024-02-14T09:36:15;10.50;99.90
23803;DHT22;12082;51.786;6.018;2024-02-14T09:38:41;10.40;99.90
23803;DHT22;12082;51.786;6.018;2024-02-14T09:41:25;10.50;99.90
23803;DHT22;12082;51.786;6.018;2024-02-14T09:43:52;10.40;99.90
23803;DHT22;12082;51.786;6.018;2024-02-14T09:46:17;10.40;99.90
23803;DHT22;12082;51.786;6.018;2024-02-14T09:48:44;10.40;99.90
23803;DHT22;12082;51.786;6.018;2024-02-14T09:51:10;10.50;99.90
23803;DHT22;12082;51.786;6.018;2024-02-14T09:53:37;10.50;99.90
23803;DHT22;12082;51.786;6.018;2024-02-14T09:56:03;10.50;99.90
23803;DHT22;12082;51.786;6.018;2024-02-14T09:58:31;10.50;99.90
23803;DHT22;12082;51.786;6.018;2024-02-14T10:00:57;10.70;99.90
23803;DHT22;12082;51.786;6.018;2024-02-14T10:03:22;10.70;99.90
23803;DHT22;12082;51.786;6.018;2024-02-14T10:05:48;10.60;99.90
23803;DHT22;12082;51.786;6.018;2024-02-14T10:08:14;10.50;99.90
23803;DHT22;12082;51.786;6.018;2024-02-14T10:10:40;10.60;99.90
23803;DHT22;12082;51.786;6.018;2024-02-14T10:13:06;10.60;99.90
23803;DHT22;12082;51.786;6.018;2024-02-14T10:15:32;10.60;99.90
23803;DHT22;12082;51.786;6.018;2024-02-14T10:17:58;10.60;99.90
23803;DHT22;12082;51.786;6.018;2024-02-14T10:20:25;10.60;99.90
23803;DHT22;12082;51.786;6.018;2024-02-14T10:22:52;10.60;99.90
23803;DHT22;12082;51.786;6.018;2024-02-14T10:25:25;10.70;99.90
23803;DHT22;12082;51.786;6.018;2024-02-14T10:27:51;10.70;99.90
23803;DHT22;12082;51.786;6.018;2024-02-14T10:30:16;10.70;99.90
23803;DHT22;12082;51.786;6.018;2024-02-14T10:32:42;11.00;99.90
23803;DHT22;12082;51.786;6.018;2024-02-14T10:35:13;11.00;99.90
23803;DHT22;12082;51.786;6.018;2024-02-14T10:37:39;10.90;99.90
23803;DHT22;12082;51.786;6.018;2024-02-14T10:40:06;10.90;99.90
23803;DHT22;12082;51.786;6.018;2024-02-14T10:42:32;10.90;99.90
23803;DHT22;12082;51.786;6.018;2024-02-14T10:44:59;11.00;99.90
23803;DHT22;12082;51.786;6.018;2024-02-14T10:47:35;11.00;99.90
23803;DHT22;12082;51.786;6.018;2024-02-14T10:50:06;11.10;99.90
23803;DHT22;12082;51.786;6.018;2024-02-14T10:52:34;10.90;99.90
23803;DHT22;12082;51.786;6.018;2024-02-14T10:55:03;11.40;99.90
23803;DHT22;12082;51.786;6.018;2024-02-14T10:57:30;11.20;99.90
23803;DHT22;12082;51.786;6.018;2024-02-14T10:59:59;11.30;99.90
23803;DHT22;12082;51.786;6.018;2024-02-14T11:02:26;11.20;99.90
23803;DHT22;12082;51.786;6.018;2024-02-14T11:04:56;11.20;99.90
23803;DHT22;12082;51.786;6.018;2024-02-14T11:07:21;11.20;99.90
23803;DHT22;12082;51.786;6.018;2024-02-14T11:10:06;11.40;99.90
23803;DHT22;12082;51.786;6.018;2024-02-14T11:12:36;11.20;99.90
23803;DHT22;12082;51.786;6.018;2024-02-14T11:15:11;11.20;99.90
23803;DHT22;12082;51.786;6.018;2024-02-14T11:17:38;11.20;99.90
23803;DHT22;12082;51.786;6.018;2024-02-14T11:20:18;11.20;99.90
23803;DHT22;12082;51.786;6.018;2024-02-14T11:23:10;11.20;99.90
23803;DHT22;12082;51.786;6.018;2024-02-14T11:25:38;11.20;99.90
23803;DHT22;12082;51.786;6.018;2024-02-14T11:28:18;11.30;99.90
23803;DHT22;12082;51.786;6.018;2024-02-14T11:30:47;11.30;99.90
23803;DHT22;12082;51.786;6.018;2024-02-14T11:33:18;11.30;99.90
23803;DHT22;12082;51.786;6.018;2024-02-14T11:35:46;11.30;99.90
23803;DHT22;12082;51.786;6.018;2024-02-14T11:38:13;11.30;99.90
23803;DHT22;12082;51.786;6.018;2024-02-14T11:40:39;11.30;99.90
23803;DHT22;12082;51.786;6.018;2024-02-14T11:43:32;11.40;99.90
23803;DHT22;12082;51.786;6.018;2024-02-14T11:45:57;11.50;99.90
23803;DHT22;12082;51.786;6.018;2024-02-14T11:48:23;11.50;99.90
23803;DHT22;12082;51.786;6.018;2024-02-14T11:50:50;11.50;99.90
23803;DHT22;12082;51.786;6.018;2024-02-14T11:53:17;11.50;99.90
23803;DHT22;12082;51.786;6.018;2024-02-14T11:55:44;11.50;99.90
23803;DHT22;12082;51.786;6.018;2024-02-14T11:58:21;11.50;99.90
23803;DHT22;12082;51.786;6.018;2024-02-14T12:00:47;11.50;99.90
23803;DHT22;12082;51.786;6.018;2024-02-14T12:03:18;11.50;99.90
23803;DHT22;12082;51.786;6.018;2024-02-14T12:05:46;11.50;99.90
23803;DHT22;12082;51.786;6.018;2024-02-14T12:08:13;11.60;99.90
23803;DHT22;12082;51.786;6.018;2024-02-14T12:10:39;11.60;99.90
23803;DHT22;12082;51.786;6.018;2024-02-14T12:13:11;11.60;99.90
23803;DHT22;12082;51.786;6.018;2024-02-14T12:15:44;11.50;99.90
23803;DHT22;12082;51.786;6.018;2024-02-14T12:18:10;11.60;99.90
23803;DHT22;12082;51.786;6.018;2024-02-14T12:20:39;11.60;99.90
23803;DHT22;12082;51.786;6.018;2024-02-14T12:23:06;11.60;99.90
23803;DHT22;12082;51.786;6.018;2024-02-14T12:25:32;11.70;99.90
23803;DHT22;12082;51.786;6.018;2024-02-14T12:27:58;11.70;99.90
23803;DHT22;12082;51.786;6.018;2024-02-14T12:30:42;11.70;99.90
23803;DHT22;12082;51.786;6.018;2024-02-14T12:33:13;11.70;99.90
23803;DHT22;12082;51.786;6.018;2024-02-14T12:35:49;11.60;99.90
23803;DHT22;12082;51.786;6.018;2024-02-14T12:38:16;11.70;99.90
23803;DHT22;12082;51.786;6.018;2024-02-14T12:40:42;11.70;99.90
23803;DHT22;12082;51.786;6.018;2024-02-14T12:43:08;11.80;99.90
23803;DHT22;12082;51.786;6.018;2024-02-14T12:45:34;11.60;99.90
23803;DHT22;12082;51.786;6.018;2024-02-14T12:48:00;11.70;99.90
23803;DHT22;12082;51.786;6.018;2024-02-14T12:50:26;11.70;99.90
23803;DHT22;12082;51.786;6.018;2024-02-14T12:52:52;11.60;99.90
23803;DHT22;12082;51.786;6.018;2024-02-14T12:55:18;11.70;99.90
23803;DHT22;12082;51.786;6.018;2024-02-14T12:57:45;11.70;99.90
23803;DHT22;12082;51.786;6.018;2024-02-14T13:00:11;11.70;99.90
23803;DHT22;12082;51.786;6.018;2024-02-14T13:02:37;11.70;99.90
23803;DHT22;12082;51.786;6.018;2024-02-14T13:05:04;11.60;99.90
23803;DHT22;12082;51.786;6.018;2024-02-14T13:07:31;11.60;99.90
23803;DHT22;12082;51.786;6.018;2024-02-14T13:09:56;11.60;99.90
23803;DHT22;12082;51.786;6.018;2024-02-14T13:12:22;11.50;99.90
23803;DHT22;12082;51.786;6.018;2024-02-14T13:14:48;11.60;99.90
23803;DHT22;12082;51.786;6.018;2024-02-14T13:17:13;11.50;99.90
23803;DHT22;12082;51.786;6.018;2024-02-14T13:19:39;11.30;99.90
23803;DHT22;12082;51.786;6.018;2024-02-14T13:22:05;11.40;99.90
23803;DHT22;12082;51.786;6.018;2024-02-14T13:24:31;11.30;99.90
23803;DHT22;12082;51.786;6.018;2024-02-14T13:26:57;11.40;99.90
23803;DHT22;12082;51.786;6.018;2024-02-14T13:29:25;11.40;99.90
23803;DHT22;12082;51.786;6.018;2024-02-14T13:31:51;11.30;99.90
23803;DHT22;12082;51.786;6.018;2024-02-14T13:34:17;11.30;99.90
23803;DHT22;12082;51.786;6.018;2024-02-14T13:36:48;11.30;99.90
23803;DHT22;12082;51.786;6.018;2024-02-14T13:39:14;11.30;99.90
23803;DHT22;12082;51.786;6.018;2024-02-14T13:41:40;11.40;99.90
23803;DHT22;12082;51.786;6.018;2024-02-14T13:44:09;11.30;99.90
23803;DHT22;12082;51.786;6.018;2024-02-14T13:46:35;11.30;99.90
23803;DHT22;12082;51.786;6.018;2024-02-14T13:49:01;11.30;99.90
23803;DHT22;12082;51.786;6.018;2024-02-14T13:51:26;11.40;99.90
23803;DHT22;12082;51.786;6.018;2024-02-14T13:53:53;11.40;99.90
23803;DHT22;12082;51.786;6.018;2024-02-14T13:56:18;11.40;99.90
23803;DHT22;12082;51.786;6.018;2024-02-14T13:58:47;11.40;99.90
23803;DHT22;12082;51.786;6.018;2024-02-14T14:01:14;11.40;99.90
23803;DHT22;12082;51.786;6.018;2024-02-14T14:03:40;11.40;99.90
23803;DHT22;12082;51.786;6.018;2024-02-14T14:06:07;11.40;99.90
23803;DHT22;12082;51.786;6.018;2024-02-14T14:08:35;11.40;99.90
23803;DHT22;12082;51.786;6.018;2024-02-14T14:11:04;11.40;99.90
23803;DHT22;12082;51.786;6.018;2024-02-14T14:13:30;11.50;99.90
23803;DHT22;12082;51.786;6.018;2024-02-14T14:15:59;11.50;99.90
23803;DHT22;12082;51.786;6.018;2024-02-14T14:18:24;11.50;99.90
23803;DHT22;12082;51.786;6.018;2024-02-14T14:20:50;11.50;99.90
23803;DHT22;12082;51.786;6.018;2024-02-14T14:23:16;11.50;99.90
23803;DHT22;12082;51.786;6.018;2024-02-14T14:25:42;11.50;99.90
23803;DHT22;12082;51.786;6.018;2024-02-14T14:28:07;11.50;99.90
23803;DHT22;12082;51.786;6.018;2024-02-14T14:30:35;11.60;99.90
23803;DHT22;12082;51.786;6.018;2024-02-14T14:33:01;11.60;99.90
23803;DHT22;12082;51.786;6.018;2024-02-14T14:35:27;11.70;99.90
23803;DHT22;12082;51.786;6.018;2024-02-14T14:37:52;11.60;99.90
23803;DHT22;12082;51.786;6.018;2024-02-14T14:40:19;11.60;99.90
23803;DHT22;12082;51.786;6.018;2024-02-14T14:42:46;11.60;99.90
23803;DHT22;12082;51.786;6.018;2024-02-14T14:45:12;11.60;99.90
23803;DHT22;12082;51.786;6.018;2024-02-14T14:47:38;11.60;99.90
23803;DHT22;12082;51.786;6.018;2024-02-14T14:50:04;11.60;99.90
23803;DHT22;12082;51.786;6.018;2024-02-14T14:52:30;11.60;99.90
23803;DHT22;12082;51.786;6.018;2024-02-14T14:54:56;11.60;99.90
23803;DHT22;12082;51.786;6.018;2024-02-14T14:57:22;11.60;99.90
23803;DHT22;12082;51.786;6.018;2024-02-14T14:59:49;11.60;99.90
23803;DHT22;12082;51.786;6.018;2024-02-14T15:02:14;11.60;99.90
23803;DHT22;12082;51.786;6.018;2024-02-14T15:04:40;11.60;99.90
23803;DHT22;12082;51.786;6.018;2024-02-14T15:07:07;11.60;99.90
23803;DHT22;12082;51.786;6.018;2024-02-14T15:09:33;11.60;99.90
23803;DHT22;12082;51.786;6.018;2024-02-14T15:11:58;11.70;99.90
23803;DHT22;12082;51.786;6.018;2024-02-14T15:14:24;11.60;99.90
23803;DHT22;12082;51.786;6.018;2024-02-14T15:16:49;11.60;99.90
23803;DHT22;12082;51.786;6.018;2024-02-14T15:19:15;11.70;99.90
23803;DHT22;12082;51.786;6.018;2024-02-14T15:21:41;11.70;99.90
23803;DHT22;12082;51.786;6.018;2024-02-14T15:24:07;11.70;99.90
23803;DHT22;12082;51.786;6.018;2024-02-14T15:26:32;11.70;99.90
23803;DHT22;12082;51.786;6.018;2024-02-14T15:29:17;11.70;99.90
23803;DHT22;12082;51.786;6.018;2024-02-14T15:32:02;11.70;99.90
23803;DHT22;12082;51.786;6.018;2024-02-14T15:34:46;11.70;99.90